createdAt,value
2018-12-22T00:00:40.341Z,994.68
2018-12-22T00:01:40.327Z,994.72
2018-12-22T00:02:40.342Z,994.65
2018-12-22T00:03:40.303Z,994.75
2018-12-22T00:04:40.293Z,994.79
2018-12-22T00:05:40.283Z,994.63
2018-12-22T00:06:40.268Z,994.75
2018-12-22T00:07:40.260Z,994.67
2018-12-22T00:08:40.268Z,994.66
2018-12-22T00:09:40.240Z,994.72
2018-12-22T00:10:40.225Z,994.75
2018-12-22T00:11:40.212Z,994.76
2018-12-22T00:12:40.202Z,994.72
2018-12-22T00:13:40.210Z,994.74
2018-12-22T00:14:40.175Z,994.71
2018-12-22T00:15:40.173Z,994.72
2018-12-22T00:16:40.158Z,994.82
2018-12-22T00:17:40.141Z,994.72
2018-12-22T00:18:40.149Z,994.81
2018-12-22T00:19:40.116Z,994.82
2018-12-22T00:20:40.106Z,994.87
2018-12-22T00:21:40.093Z,994.79
2018-12-22T00:22:40.081Z,994.79
2018-12-22T00:23:40.091Z,994.78
2018-12-22T00:24:40.061Z,994.80
2018-12-22T00:25:40.049Z,994.87
2018-12-22T00:26:40.038Z,994.86
2018-12-22T00:27:40.024Z,994.81
2018-12-22T00:28:40.043Z,994.90
2018-12-22T00:29:40.000Z,994.80
2018-12-22T00:30:39.988Z,994.84
2018-12-22T00:31:39.982Z,994.79
2018-12-22T00:32:39.974Z,994.76
2018-12-22T00:33:39.957Z,994.82
2018-12-22T00:34:39.960Z,994.86
2018-12-22T00:35:39.933Z,994.80
2018-12-22T00:36:39.918Z,994.87
2018-12-22T00:37:39.908Z,994.90
2018-12-22T00:38:39.895Z,994.86
2018-12-22T00:39:39.903Z,994.90
2018-12-22T00:40:39.872Z,994.90
2018-12-22T00:41:39.866Z,994.86
2018-12-22T00:42:39.848Z,994.89
2018-12-22T00:43:39.836Z,994.84
2018-12-22T00:44:39.846Z,994.83
2018-12-22T00:45:39.914Z,994.84
2018-12-22T00:46:39.802Z,994.85
2018-12-22T00:47:39.790Z,994.81
2018-12-22T00:48:39.778Z,994.90
2018-12-22T00:49:39.785Z,994.84
2018-12-22T00:50:39.758Z,994.86
2018-12-22T00:51:39.759Z,994.84
2018-12-22T00:52:39.737Z,994.90
2018-12-22T00:53:39.734Z,994.89
2018-12-22T00:54:39.729Z,994.83
2018-12-22T00:55:39.700Z,994.84
2018-12-22T00:56:39.688Z,994.87
2018-12-22T00:57:39.682Z,994.84
2018-12-22T00:58:39.666Z,994.90
2018-12-22T00:59:39.651Z,994.87
2018-12-22T01:00:39.659Z,994.92
2018-12-22T01:01:39.628Z,994.92
2018-12-22T01:02:39.658Z,994.87
2018-12-22T01:03:39.604Z,994.88
2018-12-22T01:04:39.595Z,994.92
2018-12-22T01:05:39.599Z,994.94
2018-12-22T01:06:39.569Z,994.96
2018-12-22T01:07:39.558Z,994.90
2018-12-22T01:08:39.547Z,994.95
2018-12-22T01:09:39.534Z,994.91
2018-12-22T01:10:39.554Z,994.96
2018-12-22T01:11:39.560Z,994.91
2018-12-22T01:12:39.500Z,995.08
2018-12-22T01:13:39.489Z,995.10
2018-12-22T01:14:39.477Z,995.10
2018-12-22T01:15:39.489Z,995.07
2018-12-22T01:16:39.453Z,995.12
2018-12-22T01:17:39.442Z,995.04
2018-12-22T01:18:39.430Z,994.99
2018-12-22T01:19:39.418Z,995.00
2018-12-22T01:20:39.415Z,995.05
2018-12-22T01:21:39.416Z,994.96
2018-12-22T01:22:39.383Z,995.06
2018-12-22T01:23:39.372Z,995.04
2018-12-22T01:24:39.361Z,995.12
2018-12-22T01:25:39.403Z,995.12
2018-12-22T01:26:39.356Z,995.11
2018-12-22T01:27:39.325Z,995.10
2018-12-22T01:28:39.776Z,995.06
2018-12-22T01:29:39.302Z,995.12
2018-12-22T01:30:39.292Z,995.07
2018-12-22T01:31:39.296Z,995.06
2018-12-22T01:32:39.268Z,995.07
2018-12-22T01:33:39.257Z,995.09
2018-12-22T01:34:39.247Z,995.02
2018-12-22T01:35:39.234Z,995.07
2018-12-22T01:36:39.240Z,995.09
2018-12-22T01:37:39.210Z,995.04
2018-12-22T01:38:39.198Z,995.01
2018-12-22T01:39:39.186Z,995.07
2018-12-22T01:40:39.174Z,995.11
2018-12-22T01:41:39.185Z,995.05
2018-12-22T01:42:39.151Z,995.12
2018-12-22T01:43:39.146Z,995.08
2018-12-22T01:44:39.133Z,995.04
2018-12-22T01:45:39.116Z,994.95
2018-12-22T01:46:39.107Z,995.03
2018-12-22T01:47:39.113Z,995.06
2018-12-22T01:48:39.081Z,995.15
2018-12-22T01:49:39.070Z,995.14
2018-12-22T01:50:39.065Z,995.09
2018-12-22T01:51:39.049Z,995.11
2018-12-22T01:52:39.057Z,995.10
2018-12-22T01:53:39.024Z,995.04
2018-12-22T01:54:39.012Z,995.07
2018-12-22T01:55:39.004Z,995.10
2018-12-22T01:56:38.990Z,995.05
2018-12-22T01:57:38.997Z,995.12
2018-12-22T01:58:38.966Z,995.11
2018-12-22T01:59:38.957Z,995.06
2018-12-22T02:00:38.943Z,995.08
2018-12-22T02:01:38.930Z,995.05
2018-12-22T02:02:38.938Z,995.00
2018-12-22T02:03:38.908Z,995.01
2018-12-22T02:04:38.898Z,994.96
2018-12-22T02:05:38.884Z,995.01
2018-12-22T02:06:38.872Z,995.00
2018-12-22T02:07:38.883Z,995.06
2018-12-22T02:08:38.851Z,994.96
2018-12-22T02:09:38.840Z,994.98
2018-12-22T02:10:38.827Z,994.98
2018-12-22T02:11:38.815Z,994.99
2018-12-22T02:12:38.803Z,994.92
2018-12-22T02:13:38.812Z,994.96
2018-12-22T02:14:38.780Z,994.98
2018-12-22T02:15:38.770Z,994.93
2018-12-22T02:16:38.757Z,994.90
2018-12-22T02:17:38.745Z,994.92
2018-12-22T02:18:38.754Z,994.96
2018-12-22T02:19:38.723Z,994.93
2018-12-22T02:20:38.712Z,994.93
2018-12-22T02:21:38.699Z,994.95
2018-12-22T02:22:38.689Z,994.90
2018-12-22T02:23:38.698Z,994.90
2018-12-22T02:24:38.670Z,994.85
2018-12-22T02:25:38.654Z,994.94
2018-12-22T02:26:38.642Z,994.86
2018-12-22T02:27:38.630Z,994.84
2018-12-22T02:28:38.635Z,994.83
2018-12-22T02:29:38.606Z,994.90
2018-12-22T02:30:38.597Z,994.88
2018-12-22T02:31:38.584Z,994.81
2018-12-22T02:32:38.582Z,994.81
2018-12-22T02:33:38.579Z,994.87
2018-12-22T02:34:38.551Z,994.82
2018-12-22T02:35:38.538Z,994.82
2018-12-22T02:36:38.528Z,994.86
2018-12-22T02:37:38.516Z,994.80
2018-12-22T02:38:38.559Z,994.82
2018-12-22T02:39:38.495Z,994.74
2018-12-22T02:40:38.480Z,994.78
2018-12-22T02:41:38.469Z,994.70
2018-12-22T02:42:38.459Z,994.69
2018-12-22T02:43:38.445Z,994.64
2018-12-22T02:44:38.453Z,994.71
2018-12-22T02:45:38.423Z,994.65
2018-12-22T02:46:38.418Z,994.61
2018-12-22T02:47:38.400Z,994.63
2018-12-22T02:48:38.387Z,994.60
2018-12-22T02:49:38.395Z,994.56
2018-12-22T02:50:38.364Z,994.59
2018-12-22T02:51:38.354Z,994.55
2018-12-22T02:52:38.340Z,994.53
2018-12-22T02:53:38.329Z,994.54
2018-12-22T02:54:38.366Z,994.59
2018-12-22T02:55:38.307Z,994.55
2018-12-22T02:56:38.296Z,994.59
2018-12-22T02:57:38.283Z,994.55
2018-12-22T02:58:38.272Z,994.49
2018-12-22T02:59:38.261Z,994.45
2018-12-22T03:00:38.279Z,994.47
2018-12-22T03:01:38.237Z,994.37
2018-12-22T03:02:38.225Z,994.38
2018-12-22T03:03:38.212Z,994.38
2018-12-22T03:04:38.202Z,994.31
2018-12-22T03:05:38.209Z,994.30
2018-12-22T03:06:38.181Z,994.36
2018-12-22T03:07:38.166Z,994.33
2018-12-22T03:08:38.161Z,994.34
2018-12-22T03:09:38.151Z,994.32
2018-12-22T03:10:38.151Z,994.32
2018-12-22T03:11:38.122Z,994.33
2018-12-22T03:12:38.110Z,994.24
2018-12-22T03:13:38.098Z,994.30
2018-12-22T03:14:38.104Z,994.22
2018-12-22T03:15:38.074Z,994.20
2018-12-22T03:16:38.065Z,994.20
2018-12-22T03:17:38.051Z,994.15
2018-12-22T03:18:38.039Z,994.10
2018-12-22T03:19:38.056Z,994.18
2018-12-22T03:20:38.016Z,994.07
2018-12-22T03:21:38.006Z,994.11
2018-12-22T03:22:37.993Z,994.05
2018-12-22T03:23:37.984Z,994.04
2018-12-22T03:24:37.970Z,994.04
2018-12-22T03:25:37.978Z,994.00
2018-12-22T03:26:37.949Z,993.96
2018-12-22T03:27:37.934Z,993.93
2018-12-22T03:28:37.925Z,993.90
2018-12-22T03:29:38.026Z,993.83
2018-12-22T03:30:37.921Z,993.82
2018-12-22T03:31:37.900Z,993.78
2018-12-22T03:32:37.880Z,993.76
2018-12-22T03:33:37.866Z,993.69
2018-12-22T03:34:37.856Z,993.75
2018-12-22T03:35:37.863Z,993.63
2018-12-22T03:36:37.843Z,993.65
2018-12-22T03:37:37.821Z,993.63
2018-12-22T03:38:37.809Z,993.63
2018-12-22T03:39:37.798Z,993.61
2018-12-22T03:40:37.824Z,993.58
2018-12-22T03:41:37.776Z,993.58
2018-12-22T03:42:37.771Z,993.57
2018-12-22T03:43:37.755Z,993.58
2018-12-22T03:44:37.742Z,993.48
2018-12-22T03:45:37.727Z,993.48
2018-12-22T03:46:37.734Z,993.43
2018-12-22T03:47:37.705Z,993.42
2018-12-22T03:48:37.692Z,993.39
2018-12-22T03:49:37.683Z,993.40
2018-12-22T03:50:37.668Z,993.38
2018-12-22T03:51:37.675Z,993.36
2018-12-22T03:52:37.648Z,993.38
2018-12-22T03:53:37.633Z,993.39
2018-12-22T03:54:37.626Z,993.40
2018-12-22T03:55:37.615Z,993.44
2018-12-22T03:56:37.617Z,993.48
2018-12-22T03:57:37.586Z,993.45
2018-12-22T03:58:37.577Z,993.56
2018-12-22T03:59:37.566Z,993.64
2018-12-22T04:00:37.553Z,993.56
2018-12-22T04:01:37.563Z,993.62
2018-12-22T04:02:37.530Z,993.69
2018-12-22T04:03:37.519Z,993.72
2018-12-22T04:04:37.511Z,993.67
2018-12-22T04:05:37.497Z,993.75
2018-12-22T04:06:37.483Z,993.63
2018-12-22T04:07:37.497Z,993.56
2018-12-22T04:08:37.460Z,993.60
2018-12-22T04:09:37.450Z,993.52
2018-12-22T04:10:37.435Z,993.43
2018-12-22T04:11:37.424Z,993.62
2018-12-22T04:12:37.431Z,993.49
2018-12-22T04:13:37.400Z,993.52
2018-12-22T04:14:37.391Z,993.43
2018-12-22T04:15:37.378Z,993.42
2018-12-22T04:16:37.385Z,993.46
2018-12-22T04:17:37.353Z,993.43
2018-12-22T04:18:37.352Z,993.43
2018-12-22T04:19:37.331Z,993.45
2018-12-22T04:20:37.324Z,993.36
2018-12-22T04:21:37.353Z,993.39
2018-12-22T04:22:37.296Z,993.40
2018-12-22T04:23:37.285Z,993.34
2018-12-22T04:24:37.273Z,993.37
2018-12-22T04:25:37.262Z,993.30
2018-12-22T04:26:37.251Z,993.28
2018-12-22T04:27:37.258Z,993.28
2018-12-22T04:28:37.226Z,993.22
2018-12-22T04:29:37.215Z,993.31
2018-12-22T04:30:37.208Z,993.27
2018-12-22T04:31:37.195Z,993.26
2018-12-22T04:32:37.207Z,993.29
2018-12-22T04:33:37.168Z,993.36
2018-12-22T04:34:37.159Z,993.29
2018-12-22T04:35:37.147Z,993.30
2018-12-22T04:36:37.238Z,993.39
2018-12-22T04:37:37.124Z,993.36
2018-12-22T04:38:37.132Z,993.38
2018-12-22T04:39:37.102Z,993.42
2018-12-22T04:40:37.087Z,993.38
2018-12-22T04:41:37.078Z,993.34
2018-12-22T04:42:37.065Z,993.39
2018-12-22T04:43:37.072Z,993.33
2018-12-22T04:44:37.042Z,993.34
2018-12-22T04:45:37.028Z,993.44
2018-12-22T04:46:37.017Z,993.38
2018-12-22T04:47:37.007Z,993.45
2018-12-22T04:48:37.014Z,993.35
2018-12-22T04:49:36.983Z,993.39
2018-12-22T04:50:36.972Z,993.40
2018-12-22T04:51:36.960Z,993.36
2018-12-22T04:52:36.954Z,993.37
2018-12-22T04:53:36.955Z,993.53
2018-12-22T04:54:36.928Z,993.46
2018-12-22T04:55:36.914Z,993.48
2018-12-22T04:56:36.900Z,993.42
2018-12-22T04:57:36.891Z,993.35
2018-12-22T04:58:36.896Z,993.41
2018-12-22T04:59:43.021Z,993.43
2018-12-22T05:00:37.856Z,993.43
2018-12-22T05:01:36.842Z,993.57
2018-12-22T05:02:36.831Z,993.46
2018-12-22T05:03:36.839Z,993.52
2018-12-22T05:04:36.809Z,993.36
2018-12-22T05:05:36.797Z,993.46
2018-12-22T05:06:36.784Z,993.49
2018-12-22T05:07:36.773Z,993.53
2018-12-22T05:08:36.779Z,993.46
2018-12-22T05:09:36.749Z,993.48
2018-12-22T05:10:36.736Z,993.57
2018-12-22T05:11:36.728Z,993.53
2018-12-22T05:12:36.714Z,993.46
2018-12-22T05:13:36.728Z,993.58
2018-12-22T05:14:36.696Z,993.61
2018-12-22T05:15:36.681Z,993.56
2018-12-22T05:16:36.669Z,993.53
2018-12-22T05:17:36.657Z,993.61
2018-12-22T05:18:36.646Z,993.64
2018-12-22T05:19:36.652Z,993.50
2018-12-22T05:20:36.622Z,993.55
2018-12-22T05:21:36.609Z,993.65
2018-12-22T05:22:36.600Z,993.60
2018-12-22T05:23:36.604Z,993.70
2018-12-22T05:24:36.578Z,993.51
2018-12-22T05:25:36.563Z,993.59
2018-12-22T05:26:36.552Z,993.52
2018-12-22T05:27:36.546Z,993.53
2018-12-22T05:28:36.552Z,993.64
2018-12-22T05:29:36.515Z,993.69
2018-12-22T05:30:36.506Z,993.66
2018-12-22T05:31:36.497Z,993.75
2018-12-22T05:32:36.483Z,993.63
2018-12-22T05:33:36.470Z,993.78
2018-12-22T05:34:36.478Z,993.76
2018-12-22T05:35:36.448Z,993.83
2018-12-22T05:36:36.437Z,993.87
2018-12-22T05:37:36.428Z,993.81
2018-12-22T05:38:36.412Z,993.93
2018-12-22T05:39:36.418Z,993.91
2018-12-22T05:40:36.388Z,993.88
2018-12-22T05:41:36.379Z,993.88
2018-12-22T05:42:36.365Z,993.93
2018-12-22T05:43:36.353Z,994.01
2018-12-22T05:44:36.365Z,994.00
2018-12-22T05:45:36.330Z,993.99
2018-12-22T05:46:36.321Z,994.07
2018-12-22T05:47:36.306Z,994.01
2018-12-22T05:48:36.297Z,994.19
2018-12-22T05:49:36.285Z,994.09
2018-12-22T05:50:36.291Z,994.03
2018-12-22T05:51:36.262Z,994.15
2018-12-22T05:52:36.252Z,994.16
2018-12-22T05:53:36.240Z,994.14
2018-12-22T05:54:36.227Z,994.14
2018-12-22T05:55:36.233Z,994.19
2018-12-22T05:56:36.203Z,994.12
2018-12-22T05:57:36.191Z,994.20
2018-12-22T05:58:36.181Z,994.28
2018-12-22T05:59:36.169Z,994.37
2018-12-22T06:00:36.179Z,994.31
2018-12-22T06:01:36.150Z,994.18
2018-12-22T06:02:36.137Z,994.15
2018-12-22T06:03:36.122Z,994.32
2018-12-22T06:04:36.111Z,994.23
2018-12-22T06:05:36.119Z,994.32
2018-12-22T06:06:36.088Z,994.45
2018-12-22T06:07:36.077Z,994.38
2018-12-22T06:08:36.063Z,994.39
2018-12-22T06:09:36.054Z,994.47
2018-12-22T06:10:36.065Z,994.43
2018-12-22T06:11:36.031Z,994.40
2018-12-22T06:12:36.017Z,994.52
2018-12-22T06:13:36.006Z,994.50
2018-12-22T06:14:35.995Z,994.58
2018-12-22T06:15:35.982Z,994.62
2018-12-22T06:16:35.992Z,994.64
2018-12-22T06:17:35.961Z,994.59
2018-12-22T06:18:35.952Z,994.58
2018-12-22T06:19:35.937Z,994.73
2018-12-22T06:20:35.927Z,994.65
2018-12-22T06:21:35.932Z,994.56
2018-12-22T06:22:35.901Z,994.70
2018-12-22T06:23:35.891Z,994.67
2018-12-22T06:24:35.879Z,994.71
2018-12-22T06:25:35.868Z,994.67
2018-12-22T06:26:35.874Z,994.65
2018-12-22T06:27:35.843Z,994.62
2018-12-22T06:28:35.835Z,994.68
2018-12-22T06:29:35.820Z,994.75
2018-12-22T06:30:35.821Z,994.69
2018-12-22T06:31:35.816Z,994.82
2018-12-22T06:32:35.787Z,994.76
2018-12-22T06:33:35.774Z,994.84
2018-12-22T06:34:35.766Z,994.81
2018-12-22T06:35:35.752Z,994.90
2018-12-22T06:36:35.758Z,994.80
2018-12-22T06:37:35.727Z,994.91
2018-12-22T06:38:35.718Z,994.90
2018-12-22T06:39:35.706Z,994.90
2018-12-22T06:40:35.694Z,994.83
2018-12-22T06:41:35.700Z,994.91
2018-12-22T06:42:35.672Z,994.86
2018-12-22T06:43:35.658Z,994.92
2018-12-22T06:44:35.646Z,994.87
2018-12-22T06:45:35.639Z,994.89
2018-12-22T06:46:35.643Z,994.98
2018-12-22T06:47:35.618Z,995.04
2018-12-22T06:48:35.600Z,995.06
2018-12-22T06:49:35.593Z,995.05
2018-12-22T06:50:35.578Z,995.03
2018-12-22T06:51:35.583Z,995.04
2018-12-22T06:52:35.556Z,995.00
2018-12-22T06:53:35.543Z,995.04
2018-12-22T06:54:35.531Z,995.03
2018-12-22T06:55:35.520Z,995.11
2018-12-22T06:56:35.527Z,995.10
2018-12-22T06:57:35.496Z,995.14
2018-12-22T06:58:35.486Z,995.15
2018-12-22T06:59:35.473Z,995.16
2018-12-22T07:00:35.461Z,995.14
2018-12-22T07:01:35.469Z,995.21
2018-12-22T07:02:35.438Z,995.25
2018-12-22T07:03:35.427Z,995.32
2018-12-22T07:04:35.415Z,995.30
2018-12-22T07:05:35.405Z,995.36
2018-12-22T07:06:35.413Z,995.44
2018-12-22T07:07:35.384Z,995.44
2018-12-22T07:08:35.369Z,995.47
2018-12-22T07:09:35.374Z,995.51
2018-12-22T07:10:35.345Z,995.48
2018-12-22T07:11:35.352Z,995.49
2018-12-22T07:12:35.322Z,995.50
2018-12-22T07:13:35.310Z,995.60
2018-12-22T07:14:35.299Z,995.64
2018-12-22T07:15:35.287Z,995.66
2018-12-22T07:16:35.298Z,995.62
2018-12-22T07:17:35.264Z,995.69
2018-12-22T07:18:35.255Z,995.68
2018-12-22T07:19:35.240Z,995.92
2018-12-22T07:20:35.233Z,995.84
2018-12-22T07:21:35.220Z,995.96
2018-12-22T07:22:35.228Z,995.96
2018-12-22T07:23:35.194Z,996.03
2018-12-22T07:24:35.184Z,996.07
2018-12-22T07:25:35.171Z,996.10
2018-12-22T07:26:35.160Z,996.18
2018-12-22T07:27:35.165Z,996.24
2018-12-22T07:28:35.138Z,996.20
2018-12-22T07:29:35.129Z,996.20
2018-12-22T07:30:35.116Z,996.32
2018-12-22T07:31:35.104Z,996.24
2018-12-22T07:32:35.197Z,996.28
2018-12-22T07:33:35.079Z,996.40
2018-12-22T07:34:35.068Z,996.46
2018-12-22T07:35:35.056Z,996.43
2018-12-22T07:36:35.046Z,996.43
2018-12-22T07:37:35.053Z,996.46
2018-12-22T07:38:35.025Z,996.46
2018-12-22T07:39:35.009Z,996.46
2018-12-22T07:40:34.998Z,996.41
2018-12-22T07:41:34.985Z,996.48
2018-12-22T07:42:34.991Z,996.55
2018-12-22T07:43:34.966Z,996.51
2018-12-22T07:44:34.954Z,996.52
2018-12-22T07:45:34.941Z,996.56
2018-12-22T07:46:34.930Z,996.60
2018-12-22T07:47:34.933Z,996.61
2018-12-22T07:48:34.907Z,996.67
2018-12-22T07:49:34.894Z,996.64
2018-12-22T07:50:34.882Z,996.72
2018-12-22T07:51:34.868Z,996.69
2018-12-22T07:52:34.882Z,996.65
2018-12-22T07:53:34.846Z,996.74
2018-12-22T07:54:34.836Z,996.70
2018-12-22T07:55:34.824Z,996.67
2018-12-22T07:56:34.812Z,996.73
2018-12-22T07:57:34.819Z,996.69
2018-12-22T07:58:34.791Z,996.77
2018-12-22T07:59:34.777Z,996.77
2018-12-22T08:00:35.297Z,996.85
2018-12-22T08:01:34.755Z,996.85
2018-12-22T08:02:34.784Z,996.87
2018-12-22T08:03:34.730Z,996.91
2018-12-22T08:04:34.722Z,996.89
2018-12-22T08:05:38.654Z,996.96
2018-12-22T08:06:34.700Z,996.87
2018-12-22T08:07:34.684Z,997.00
2018-12-22T08:08:34.695Z,997.04
2018-12-22T08:09:34.662Z,997.05
2018-12-22T08:10:34.650Z,997.08
2018-12-22T08:11:34.638Z,997.09
2018-12-22T08:12:34.626Z,997.16
2018-12-22T08:13:34.639Z,997.14
2018-12-22T08:14:34.606Z,997.17
2018-12-22T08:15:34.597Z,997.21
2018-12-22T08:16:34.581Z,997.23
2018-12-22T08:17:34.568Z,997.25
2018-12-22T08:18:34.578Z,997.23
2018-12-22T08:19:34.544Z,997.26
2018-12-22T08:20:34.536Z,997.32
2018-12-22T08:21:34.523Z,997.33
2018-12-22T08:22:34.512Z,997.32
2018-12-22T08:23:34.523Z,997.32
2018-12-22T08:24:34.487Z,997.34
2018-12-22T08:25:34.476Z,997.34
2018-12-22T08:26:34.464Z,997.34
2018-12-22T08:27:34.454Z,997.42
2018-12-22T08:28:34.458Z,997.39
2018-12-22T08:29:34.428Z,997.47
2018-12-22T08:30:34.417Z,997.57
2018-12-22T08:31:34.406Z,997.51
2018-12-22T08:32:34.395Z,997.66
2018-12-22T08:33:34.413Z,997.67
2018-12-22T08:34:34.370Z,997.59
2018-12-22T08:35:34.359Z,997.68
2018-12-22T08:36:34.347Z,997.70
2018-12-22T08:37:35.581Z,997.79
2018-12-22T08:38:34.330Z,997.76
2018-12-22T08:39:34.403Z,997.78
2018-12-22T08:40:34.301Z,997.76
2018-12-22T08:41:34.289Z,997.85
2018-12-22T08:42:34.278Z,997.91
2018-12-22T08:43:34.268Z,997.91
2018-12-22T08:44:34.275Z,998.06
2018-12-22T08:45:34.243Z,997.99
2018-12-22T08:46:34.230Z,998.04
2018-12-22T08:47:34.219Z,997.99
2018-12-22T08:48:34.206Z,998.05
2018-12-22T08:49:34.213Z,998.09
2018-12-22T08:50:34.184Z,998.16
2018-12-22T08:51:34.172Z,998.07
2018-12-22T08:52:34.159Z,998.21
2018-12-22T08:53:34.153Z,998.17
2018-12-22T08:54:34.154Z,998.32
2018-12-22T08:55:34.127Z,998.37
2018-12-22T08:56:34.111Z,998.36
2018-12-22T08:57:34.099Z,998.38
2018-12-22T08:58:34.090Z,998.46
2018-12-22T08:59:34.095Z,998.50
2018-12-22T09:00:34.066Z,998.55
2018-12-22T09:01:34.054Z,998.56
2018-12-22T09:02:34.043Z,998.56
2018-12-22T09:03:34.034Z,998.67
2018-12-22T09:04:34.036Z,998.68
2018-12-22T09:05:34.006Z,998.78
2018-12-22T09:06:34.020Z,998.78
2018-12-22T09:07:33.996Z,998.82
2018-12-22T09:08:34.079Z,998.81
2018-12-22T09:09:33.978Z,998.88
2018-12-22T09:10:33.950Z,998.85
2018-12-22T09:11:33.939Z,998.89
2018-12-22T09:12:33.925Z,998.90
2018-12-22T09:13:33.914Z,998.93
2018-12-22T09:14:33.922Z,998.97
2018-12-22T09:15:33.893Z,999.02
2018-12-22T09:16:33.880Z,999.04
2018-12-22T09:17:33.868Z,999.09
2018-12-22T09:18:33.857Z,999.08
2018-12-22T09:19:33.864Z,999.14
2018-12-22T09:20:33.840Z,999.18
2018-12-22T09:21:33.825Z,999.18
2018-12-22T09:22:33.811Z,999.26
2018-12-22T09:23:33.799Z,999.16
2018-12-22T09:24:33.806Z,999.22
2018-12-22T09:25:33.777Z,999.27
2018-12-22T09:26:33.764Z,999.31
2018-12-22T09:27:33.753Z,999.37
2018-12-22T09:28:33.741Z,999.41
2018-12-22T09:29:33.747Z,999.35
2018-12-22T09:30:33.718Z,999.49
2018-12-22T09:31:33.709Z,999.57
2018-12-22T09:32:33.695Z,999.42
2018-12-22T09:33:33.684Z,999.54
2018-12-22T09:34:33.711Z,999.53
2018-12-22T09:35:33.661Z,999.58
2018-12-22T09:36:33.649Z,999.62
2018-12-22T09:37:33.637Z,999.63
2018-12-22T09:38:33.624Z,999.60
2018-12-22T09:39:33.616Z,999.70
2018-12-22T09:40:33.623Z,999.61
2018-12-22T09:41:33.591Z,999.66
2018-12-22T09:42:33.581Z,999.74
2018-12-22T09:43:33.568Z,999.79
2018-12-22T09:44:33.556Z,999.80
2018-12-22T09:45:33.561Z,999.81
2018-12-22T09:46:33.532Z,999.90
2018-12-22T09:47:33.521Z,999.87
2018-12-22T09:48:33.513Z,999.80
2018-12-22T09:49:33.502Z,999.83
2018-12-22T09:50:33.513Z,999.84
2018-12-22T09:51:33.474Z,999.91
2018-12-22T09:52:33.463Z,999.85
2018-12-22T09:53:33.450Z,999.86
2018-12-22T09:54:33.439Z,999.83
2018-12-22T09:55:33.445Z,999.80
2018-12-22T09:56:33.416Z,999.81
2018-12-22T09:57:33.403Z,999.85
2018-12-22T09:58:33.392Z,999.82
2018-12-22T09:59:33.380Z,999.87
2018-12-22T10:00:33.389Z,999.88
2018-12-22T10:01:33.358Z,999.92
2018-12-22T10:02:33.346Z,999.96
2018-12-22T10:03:33.335Z,999.89
2018-12-22T10:04:33.322Z,999.97
2018-12-22T10:05:33.333Z,999.94
2018-12-22T10:06:33.301Z,999.98
2018-12-22T10:07:33.287Z,999.95
2018-12-22T10:08:33.275Z,999.96
2018-12-22T10:09:33.263Z,1000.03
2018-12-22T10:10:33.252Z,1000.03
2018-12-22T10:11:33.258Z,1000.04
2018-12-22T10:12:33.233Z,1000.03
2018-12-22T10:13:33.216Z,1000.05
2018-12-22T10:14:33.206Z,1000.05
2018-12-22T10:15:33.193Z,1000.09
2018-12-22T10:16:33.201Z,1000.06
2018-12-22T10:17:33.171Z,1000.08
2018-12-22T10:18:33.158Z,1000.07
2018-12-22T10:19:33.146Z,1000.10
2018-12-22T10:20:33.136Z,1000.17
2018-12-22T10:21:33.142Z,1000.20
2018-12-22T10:22:33.110Z,1000.12
2018-12-22T10:23:33.098Z,1000.13
2018-12-22T10:24:33.087Z,1000.16
2018-12-22T10:25:33.074Z,1000.24
2018-12-22T10:26:33.087Z,1000.24
2018-12-22T10:27:33.052Z,1000.24
2018-12-22T10:28:33.041Z,1000.23
2018-12-22T10:29:33.029Z,1000.15
2018-12-22T10:30:33.016Z,1000.26
2018-12-22T10:31:33.024Z,1000.22
2018-12-22T10:32:32.994Z,1000.23
2018-12-22T10:33:32.985Z,1000.21
2018-12-22T10:34:32.971Z,1000.23
2018-12-22T10:35:32.959Z,1000.25
2018-12-22T10:36:33.003Z,1000.28
2018-12-22T10:37:32.933Z,1000.26
2018-12-22T10:38:32.923Z,1000.29
2018-12-22T10:39:32.912Z,1000.27
2018-12-22T10:40:32.899Z,1000.35
2018-12-22T10:41:32.928Z,1000.34
2018-12-22T10:42:32.875Z,1000.37
2018-12-22T10:43:32.864Z,1000.37
2018-12-22T10:44:32.853Z,1000.36
2018-12-22T10:45:32.841Z,1000.47
2018-12-22T10:46:32.829Z,1000.43
2018-12-22T10:47:32.837Z,1000.52
2018-12-22T10:48:32.805Z,1000.45
2018-12-22T10:49:32.796Z,1000.45
2018-12-22T10:50:32.781Z,1000.47
2018-12-22T10:51:32.772Z,1000.45
2018-12-22T10:52:32.777Z,1000.47
2018-12-22T10:53:32.746Z,1000.48
2018-12-22T10:54:32.736Z,1000.53
2018-12-22T10:55:32.723Z,1000.48
2018-12-22T10:56:32.710Z,1000.53
2018-12-22T10:57:32.717Z,1000.49
2018-12-22T10:58:32.687Z,1000.46
2018-12-22T10:59:32.676Z,1000.47
2018-12-22T11:00:32.663Z,1000.43
2018-12-22T11:01:32.659Z,1000.49
2018-12-22T11:02:32.660Z,1000.51
2018-12-22T11:03:32.630Z,1000.55
2018-12-22T11:04:32.617Z,1000.57
2018-12-22T11:05:32.604Z,1000.54
2018-12-22T11:06:32.594Z,1000.60
2018-12-22T11:07:32.601Z,1000.58
2018-12-22T11:08:32.570Z,1000.57
2018-12-22T11:09:32.557Z,1000.61
2018-12-22T11:10:32.544Z,1000.54
2018-12-22T11:11:32.534Z,1000.51
2018-12-22T11:12:32.546Z,1000.63
2018-12-22T11:13:32.508Z,1000.62
2018-12-22T11:14:32.497Z,1000.60
2018-12-22T11:15:32.486Z,1000.61
2018-12-22T11:16:32.476Z,1000.60
2018-12-22T11:17:32.505Z,1000.61
2018-12-22T11:18:32.451Z,1000.51
2018-12-22T11:19:32.439Z,1000.56
2018-12-22T11:20:32.427Z,1000.55
2018-12-22T11:21:32.415Z,1000.62
2018-12-22T11:22:32.407Z,1000.55
2018-12-22T11:23:32.410Z,1000.53
2018-12-22T11:24:32.382Z,1000.56
2018-12-22T11:25:32.366Z,1000.50
2018-12-22T11:26:32.355Z,1000.57
2018-12-22T11:27:32.351Z,1000.57
2018-12-22T11:28:32.348Z,1000.59
2018-12-22T11:29:32.321Z,1000.53
2018-12-22T11:30:32.307Z,1000.58
2018-12-22T11:31:35.065Z,1000.53
2018-12-22T11:32:32.283Z,1000.45
2018-12-22T11:33:32.288Z,1000.53
2018-12-22T11:34:32.261Z,1000.51
2018-12-22T11:35:32.249Z,1000.49
2018-12-22T11:36:32.235Z,1000.45
2018-12-22T11:37:32.242Z,1000.49
2018-12-22T11:38:32.212Z,1000.53
2018-12-22T11:39:32.203Z,1000.53
2018-12-22T11:40:32.191Z,1000.47
2018-12-22T11:41:32.176Z,1000.57
2018-12-22T11:42:32.183Z,1000.51
2018-12-22T11:43:32.154Z,1000.43
2018-12-22T11:44:32.142Z,1000.45
2018-12-22T11:45:32.129Z,1000.43
2018-12-22T11:46:32.120Z,1000.39
2018-12-22T11:47:32.125Z,1000.41
2018-12-22T11:48:32.096Z,1000.50
2018-12-22T11:49:32.083Z,1000.43
2018-12-22T11:50:32.072Z,1000.45
2018-12-22T11:51:32.061Z,1000.51
2018-12-22T11:52:32.071Z,1000.49
2018-12-22T11:53:32.037Z,1000.47
2018-12-22T11:54:32.026Z,1000.51
2018-12-22T11:55:32.016Z,1000.47
2018-12-22T11:56:32.003Z,1000.50
2018-12-22T11:57:31.991Z,1000.39
2018-12-22T11:58:31.998Z,1000.43
2018-12-22T11:59:31.969Z,1000.44
2018-12-22T12:00:31.957Z,1000.50
2018-12-22T12:01:31.947Z,1000.49
2018-12-22T12:02:31.953Z,1000.48
2018-12-22T12:03:31.920Z,1000.46
2018-12-22T12:04:31.909Z,1000.48
2018-12-22T12:05:31.897Z,1000.44
2018-12-22T12:06:31.888Z,1000.47
2018-12-22T12:07:31.874Z,1000.51
2018-12-22T12:08:31.883Z,1000.45
2018-12-22T12:09:31.851Z,1000.50
2018-12-22T12:10:31.839Z,1000.52
2018-12-22T12:11:31.828Z,1000.53
2018-12-22T12:12:31.814Z,1000.56
2018-12-22T12:13:31.826Z,1000.59
2018-12-22T12:14:31.792Z,1000.67
2018-12-22T12:15:31.780Z,1000.78
2018-12-22T12:16:31.768Z,1000.79
2018-12-22T12:17:31.757Z,1000.76
2018-12-22T12:18:31.764Z,1000.84
2018-12-22T12:19:31.734Z,1000.71
2018-12-22T12:20:31.723Z,1000.85
2018-12-22T12:21:31.712Z,1000.67
2018-12-22T12:22:31.699Z,1000.86
2018-12-22T12:23:31.704Z,1000.71
2018-12-22T12:24:31.677Z,1000.76